Historyczne dane pomiarowe

Dodano dane terminowe – wersja testowa.

Dane z okresu 1951-2019

Wersja bazy: 1.34 [2019-03-16, lista zmian], aktualizacja planowana na 2019-04-15

Dane meteo z obszaru Polski uzyskane na podstawie danych udostępnionych przez Instytut Meteorologii i Gospodarki Wodnej – Państwowy Instytut Badawczy.

 

Wybierz Datę:    

       

TemperaturaWilgotnośćWiatrCiśnienieOpadyŚniegCzas trwania zjawisk
 Stacja t tx tn tng RH VA  wxwx mslp ppp RRR   cm mm wxwxwxwxwxwxwx
1994-08-14 14.3 18.6 11.6 9.9-------- 0.0--- 0.0 6.6-------
1994-08-13 17.4 22.9 13.5 10.9-------- 2.5--- 0.0 2.5-------
1994-08-12 18.6 24.0 9.6 7.6-------- 0.0--- 0.0 6.6-------
1994-08-11 19.0 24.7 9.4 7.3-------- 0.0--- 0.0 8.6-------
1994-08-10 19.9 26.3 13.7 10.9-------- 0.0--- 0.0 7.5-------
1994-08-09 17.2 22.0 12.3 9.2-------- 9.8--- 0.0 0.0-------
1994-08-08 19.3 25.1 16.4 12.3-------- 0.0--- 0.0 2.2-------
1994-08-07 24.3 28.7 17.2 14.4-------- 0.1--- 0.0 10.8-------
1994-08-06 25.6 33.8 15.9 11.9-------- 0.0--- 0.0 12.3-------
1994-08-05 24.7 32.4 16.6 12.9-------- 0.0--- 0.0 12.5-------
1994-08-04 24.3 29.8 17.4 15.6-------- 0.0--- 0.0 11.2-------
1994-08-03 21.7 30.8 18.9 17.5-------- 2.8--- 0.0 3.0-------
1994-08-02 26.5 33.8 17.1 15.0-------- 0.7--- 0.0 11.2-------
1994-08-01 25.1 35.5 16.1 13.7-------- 2.5--- 0.0 7.7-------
1994-07-31 27.0 36.6 14.8 13.1-------- 0.0--- 0.0 12.8-------
1994-07-30 26.7 35.7 15.1 11.9-------- 0.0--- 0.0 13.2-------
1994-07-29 26.0 34.6 13.7 10.5-------- 0.0--- 0.0 13.5-------
1994-07-28 24.9 33.4 13.0 9.9-------- 0.0--- 0.0 13.9-------
1994-07-27 25.4 33.1 15.0 11.0-------- 0.0--- 0.0 13.5-------
1994-07-26 24.3 32.2 14.1 9.8-------- 0.0--- 0.0 14.0-------
1994-07-25 23.3 31.7 11.5 10.2-------- 0.0--- 0.0 12.5-------
1994-07-24 23.5 30.2 13.6 9.6-------- 0.0--- 0.0 12.7-------
1994-07-23 21.8 28.7 9.8 8.6-------- 0.0--- 0.0 13.6-------
1994-07-22 19.6 26.2 10.2 7.4-------- 0.0--- 0.0 13.8-------
1994-07-21 19.4 28.6 6.7 5.3-------- 0.0--- 0.0 14.1-------
1994-07-20 17.7 24.2 8.7 7.2-------- 0.0--- 0.0 13.8-------
1994-07-19 17.4 22.0 10.0 7.1-------- 0.0--- 0.0 11.0-------
1994-07-18 19.0 23.8 14.0 13.3-------- 0.0--- 0.0 6.6-------
1994-07-17 22.2 26.2 15.8 12.2-------- 6.7--- 0.0 9.4-------
1994-07-16 23.8 31.8 12.1 8.5-------- 0.0--- 0.0 11.5-------
1994-07-15 24.6 31.1 14.3 10.3-------- 0.0--- 0.0 14.4-------
1994-07-14 25.4 31.4 17.2 13.4-------- 0.0--- 0.0 14.4-------
1994-07-13 25.0 30.9 14.1 10.6-------- 0.0--- 0.0 12.8-------
1994-07-12 24.1 30.6 13.2 9.9-------- 0.0--- 0.0 14.1-------
1994-07-11 22.6 28.2 13.2 9.4-------- 0.0--- 0.0 13.9-------
1994-07-10 20.4 26.0 11.8 9.8-------- 0.5--- 0.0 10.0-------
1994-07-09 14.5 19.2 10.6 9.8-------- 2.0--- 0.0 0.0-------
1994-07-08 16.0 22.3 12.6 8.0-------- 8.4--- 0.0 4.4-------
1994-07-07 18.9 26.0 10.0 7.6-------- 0.0--- 0.0 14.1-------
1994-07-06 18.3 25.0 7.2 5.1-------- 0.0--- 0.0 9.3-------
1994-07-05 18.6 24.2 8.0 5.7-------- 0.0--- 0.0 13.7-------
1994-07-04 19.4 25.7 8.0 5.4-------- 0.0--- 0.0 14.5-------
1994-07-03 17.7 24.0 5.4 2.8-------- 0.0--- 0.0 13.9-------
1994-07-02 16.4 23.1 7.4 4.0-------- 0.0--- 0.0 14.4-------
1994-07-01 16.9 23.4 7.0 4.1-------- 0.0--- 0.0 14.4-------
1994-06-30 20.5 25.8 16.2 13.6-------- 1.1--- 0.0 6.1-------
1994-06-29 22.8 29.3 13.4 9.9-------- 0.0--- 0.0 14.4-------
1994-06-28 21.4 27.5 10.1 8.5-------- 0.0--- 0.0 13.4-------
1994-06-27 22.7 28.8 13.4 10.9-------- 0.0--- 0.0 14.1-------
1994-06-26 21.0 28.7 8.9 4.9-------- 0.0--- 0.0 14.3-------
1994-06-25 15.7 22.2 5.0 1.8-------- 0.0--- 0.0 13.8-------
1994-06-24 13.0 18.0 8.2 6.6-------- 0.0--- 0.0 10.8-------
1994-06-23 13.9 19.1 10.6 9.9-------- 1.7--- 0.0 9.8-------
1994-06-22 16.7 23.4 9.4 6.6-------- 1.1--- 0.0 6.0-------
1994-06-21 14.1 21.5 4.1 1.4-------- 0.0--- 0.0 11.1-------
1994-06-20 14.9 17.5 11.6 10.3-------- 0.0--- 0.0 11.7-------
1994-06-19 13.0 15.2 11.0 10.9-------- 3.8--- 0.0 0.2-------
1994-06-18 11.7 17.2 2.3 -0.6-------- 3.0--- 0.0 9.7-------
1994-06-17 10.1 14.8 3.6 1.2-------- 0.6--- 0.0 9.1-------
1994-06-16 11.6 16.4 6.9 4.8-------- 2.7--- 0.0 4.5-------
233.8 ms

 

Źródłem pochodzenia danych jest Instytut Meteorologii i Gospodarki Wodnej – Państwowy Instytut Badawczy. Dane Instytutu Meteorologii i Gospodarki Wodnej – Państwowego Instytutu Badawczego zostały przetworzone.

Dane źródłowe można odnaleźć na stronie https://dane.imgw.pl